createdAt,value
2019-04-03T00:01:04.722Z,24.93
2019-04-03T00:03:34.596Z,24.90
2019-04-03T00:06:05.499Z,24.43
2019-04-03T00:08:36.683Z,23.57
2019-04-03T00:11:08.786Z,22.77
2019-04-03T00:13:37.706Z,24.37
2019-04-03T00:16:09.342Z,23.80
2019-04-03T00:18:38.732Z,23.57
2019-04-03T00:21:09.042Z,22.53
2019-04-03T00:23:38.564Z,21.90
2019-04-03T00:26:08.962Z,26.60
2019-04-03T00:28:39.368Z,26.07
2019-04-03T00:31:08.100Z,22.50
2019-04-03T00:33:40.594Z,23.80
2019-04-03T00:36:12.265Z,23.40
2019-04-03T00:38:41.834Z,22.23
2019-04-03T00:41:12.422Z,20.90
2019-04-03T00:43:44.338Z,25.73
2019-04-03T00:46:13.777Z,24.73
2019-04-03T00:48:44.178Z,25.13
2019-04-03T00:51:13.701Z,28.57
2019-04-03T00:53:44.270Z,23.63
2019-04-03T00:56:14.661Z,22.70
2019-04-03T00:58:44.695Z,22.60
2019-04-03T01:01:14.575Z,25.40
2019-04-03T01:03:45.159Z,21.67
2019-04-03T01:06:14.507Z,26.40
2019-04-03T01:08:44.125Z,24.73
2019-04-03T01:11:14.590Z,27.33
2019-04-03T01:13:43.999Z,29.27
2019-04-03T01:16:13.322Z,23.83
2019-04-03T01:18:42.149Z,26.50
2019-04-03T01:21:10.988Z,20.43
2019-04-03T01:23:40.513Z,23.30
2019-04-03T01:26:10.342Z,27.83
2019-04-03T01:28:41.977Z,29.67
2019-04-03T01:31:14.907Z,29.47
2019-04-03T01:33:47.152Z,24.53
2019-04-03T01:36:19.185Z,30.33
2019-04-03T01:38:50.289Z,29.03
2019-04-03T01:41:21.220Z,22.17
2019-04-03T01:43:53.382Z,29.03
2019-04-03T01:46:23.223Z,23.10
2019-04-03T01:48:52.595Z,25.17
2019-04-03T01:51:26.129Z,24.63
2019-04-03T01:53:55.452Z,28.37
2019-04-03T01:56:26.286Z,25.60
2019-04-03T01:58:57.428Z,22.57
2019-04-03T02:01:27.832Z,49.70
2019-04-03T02:03:58.231Z,24.50
2019-04-03T02:06:30.176Z,25.33
2019-04-03T02:08:59.555Z,24.20
2019-04-03T02:11:29.968Z,24.93
2019-04-03T02:14:00.512Z,26.97
2019-04-03T02:16:29.986Z,26.97
2019-04-03T02:19:00.340Z,23.77
2019-04-03T02:21:32.629Z,31.17
2019-04-03T02:24:02.373Z,23.07
2019-04-03T02:26:32.710Z,25.00
2019-04-03T02:29:04.440Z,27.47
2019-04-03T02:31:33.565Z,24.17
2019-04-03T02:34:04.139Z,24.63
2019-04-03T02:36:34.486Z,26.27
2019-04-03T02:39:03.856Z,26.43
2019-04-03T02:41:36.504Z,23.23
2019-04-03T02:44:06.639Z,25.17
2019-04-03T02:46:37.121Z,23.00
2019-04-03T02:49:10.757Z,20.70
2019-04-03T02:51:42.797Z,21.70
2019-04-03T02:54:20.898Z,26.63
2019-04-03T02:56:51.582Z,25.03
2019-04-03T02:59:21.019Z,23.70
2019-04-03T03:01:51.652Z,28.23
2019-04-03T03:04:21.926Z,26.03
2019-04-03T03:06:53.031Z,21.80
2019-04-03T03:09:22.839Z,22.53
2019-04-03T03:11:56.343Z,22.20
2019-04-03T03:14:26.565Z,22.17
2019-04-03T03:16:57.008Z,23.60
2019-04-03T03:19:26.523Z,26.47
2019-04-03T03:22:00.683Z,21.00
2019-04-03T03:24:35.467Z,29.00
2019-04-03T03:27:08.056Z,24.07
2019-04-03T03:29:37.650Z,22.73
2019-04-03T03:32:15.508Z,23.60
2019-04-03T03:34:55.075Z,24.07
2019-04-03T03:37:12.709Z,24.33
2019-04-03T03:39:43.580Z,25.20
2019-04-03T03:42:12.741Z,30.67
2019-04-03T03:44:45.619Z,25.57
2019-04-03T03:47:13.825Z,28.30
2019-04-03T03:49:48.519Z,24.57
2019-04-03T03:52:17.743Z,20.83
2019-04-03T03:54:51.098Z,22.93
2019-04-03T03:57:20.463Z,23.93
2019-04-03T03:59:52.820Z,24.80
2019-04-03T04:02:23.626Z,21.90
2019-04-03T04:04:54.070Z,29.40
2019-04-03T04:07:25.085Z,23.77
2019-04-03T04:09:55.798Z,22.53
2019-04-03T04:12:26.502Z,27.70
2019-04-03T04:14:57.572Z,23.07
2019-04-03T04:17:30.025Z,24.93
2019-04-03T04:20:05.153Z,26.10
2019-04-03T04:22:34.950Z,20.30
2019-04-03T04:25:08.874Z,22.90
2019-04-03T04:27:39.543Z,25.63
2019-04-03T04:30:12.075Z,24.93
2019-04-03T04:32:42.385Z,22.87
2019-04-03T04:35:14.988Z,23.33
2019-04-03T04:37:43.829Z,25.03
2019-04-03T04:40:13.309Z,21.20
2019-04-03T04:42:43.665Z,25.33
2019-04-03T04:45:13.267Z,26.83
2019-04-03T04:47:45.537Z,29.67
2019-04-03T04:50:25.765Z,24.57
2019-04-03T04:52:58.082Z,30.03
2019-04-03T04:55:30.401Z,28.67
2019-04-03T04:57:58.727Z,28.37
2019-04-03T05:00:29.989Z,26.40
2019-04-03T05:03:01.054Z,27.33
2019-04-03T05:05:31.311Z,27.20
2019-04-03T05:08:02.620Z,23.67
2019-04-03T05:10:34.646Z,26.47
2019-04-03T05:13:04.449Z,25.67
2019-04-03T05:15:35.206Z,27.83
2019-04-03T05:18:07.067Z,23.93
2019-04-03T05:20:36.509Z,31.93
2019-04-03T05:23:06.740Z,26.40
2019-04-03T05:25:37.176Z,27.53
2019-04-03T05:28:08.486Z,27.90
2019-04-03T05:30:39.358Z,27.50
2019-04-03T05:33:11.447Z,25.40
2019-04-03T05:35:42.181Z,25.37
2019-04-03T05:38:12.571Z,26.13
2019-04-03T05:40:43.098Z,26.87
2019-04-03T05:43:14.965Z,27.60
2019-04-03T05:45:44.356Z,34.40
2019-04-03T05:48:17.833Z,25.50
2019-04-03T05:50:45.149Z,24.43
2019-04-03T05:53:15.959Z,26.07
2019-04-03T05:55:45.348Z,29.83
2019-04-03T05:58:16.689Z,26.33
2019-04-03T06:00:47.119Z,20.77
2019-04-03T06:03:17.976Z,22.93
2019-04-03T06:05:47.613Z,23.60
2019-04-03T06:08:19.954Z,24.80
2019-04-03T06:10:50.066Z,23.73
2019-04-03T06:13:20.441Z,25.47
2019-04-03T06:15:52.764Z,31.03
2019-04-03T06:18:22.274Z,22.70
2019-04-03T06:20:51.990Z,30.97
2019-04-03T06:23:22.056Z,28.67
2019-04-03T06:25:52.620Z,36.07
2019-04-03T06:28:22.252Z,31.53
2019-04-03T06:30:55.594Z,32.50
2019-04-03T06:33:26.295Z,30.17
2019-04-03T06:35:56.676Z,45.93
2019-04-03T06:38:27.057Z,44.43
2019-04-03T06:40:57.512Z,36.97
2019-04-03T06:43:29.280Z,33.20
2019-04-03T06:45:58.429Z,35.30
2019-04-03T06:48:28.756Z,36.40
2019-04-03T06:50:58.235Z,32.03
2019-04-03T06:53:28.768Z,34.93
2019-04-03T06:56:00.990Z,39.00
2019-04-03T06:58:38.145Z,26.70
2019-04-03T07:01:02.843Z,33.63
2019-04-03T07:03:34.385Z,37.20
2019-04-03T07:06:06.934Z,28.47
2019-04-03T07:08:39.685Z,29.90
2019-04-03T07:11:08.723Z,35.43
2019-04-03T07:13:39.994Z,27.80
2019-04-03T07:16:10.395Z,37.07
2019-04-03T07:18:40.152Z,31.43
2019-04-03T07:21:10.582Z,29.10
2019-04-03T07:23:41.243Z,26.87
2019-04-03T07:26:11.085Z,32.67
2019-04-03T07:28:41.495Z,28.57
2019-04-03T07:31:13.136Z,25.73
2019-04-03T07:33:43.549Z,24.10
2019-04-03T07:36:14.071Z,26.47
2019-04-03T07:38:43.482Z,37.63
2019-04-03T07:41:14.051Z,26.83
2019-04-03T07:43:43.623Z,33.83
2019-04-03T07:46:14.029Z,26.07
2019-04-03T07:48:43.572Z,35.73
2019-04-03T07:51:13.822Z,31.43
2019-04-03T07:53:44.183Z,29.30
2019-04-03T07:56:13.591Z,26.80
2019-04-03T07:58:43.967Z,25.53
2019-04-03T08:01:14.142Z,25.63
2019-04-03T08:03:44.790Z,25.10
2019-04-03T08:06:15.474Z,24.00
2019-04-03T08:09:06.926Z,22.40
2019-04-03T08:11:25.905Z,30.00
2019-04-03T08:13:57.329Z,24.20
2019-04-03T08:16:27.861Z,22.00
2019-04-03T08:18:57.267Z,29.17
2019-04-03T08:21:27.999Z,23.83
2019-04-03T08:23:58.873Z,27.83
2019-04-03T08:26:30.630Z,20.70
2019-04-03T08:29:01.786Z,24.80
2019-04-03T08:31:31.873Z,24.82
2019-04-03T08:34:14.651Z,21.60
2019-04-03T08:36:38.344Z,24.77
2019-04-03T08:39:08.546Z,28.52
2019-04-03T08:41:38.929Z,26.30
2019-04-03T08:44:09.248Z,26.60
2019-04-03T08:46:42.979Z,28.60
2019-04-03T08:49:11.924Z,29.15
2019-04-03T08:51:42.385Z,29.60
2019-04-03T08:54:11.778Z,23.12
2019-04-03T08:56:42.290Z,27.13
2019-04-03T08:59:13.554Z,22.73
2019-04-03T09:01:45.984Z,26.00
2019-04-03T09:04:18.089Z,28.57
2019-04-03T09:06:48.825Z,24.52
2019-04-03T09:09:18.414Z,23.52
2019-04-03T09:11:47.968Z,32.98
2019-04-03T09:14:19.705Z,32.85
2019-04-03T09:16:49.497Z,21.37
2019-04-03T09:19:18.990Z,17.85
2019-04-03T09:21:51.394Z,29.55
2019-04-03T09:24:22.353Z,32.90
2019-04-03T09:26:51.972Z,23.40
2019-04-03T09:29:22.347Z,22.03
2019-04-03T09:31:55.800Z,24.37
2019-04-03T09:34:25.100Z,22.33
2019-04-03T09:36:55.566Z,25.13
2019-04-03T09:39:26.170Z,24.53
2019-04-03T09:41:56.528Z,28.20
2019-04-03T09:44:26.106Z,24.27
2019-04-03T09:46:56.690Z,22.43
2019-04-03T09:49:26.143Z,23.50
2019-04-03T09:51:55.711Z,26.33
2019-04-03T09:54:27.520Z,27.23
2019-04-03T09:57:03.809Z,25.10
2019-04-03T09:59:28.795Z,21.57
2019-04-03T10:01:58.304Z,26.53
2019-04-03T10:04:28.894Z,25.10
2019-04-03T10:06:59.834Z,20.77
2019-04-03T10:09:30.045Z,24.63
2019-04-03T10:12:01.587Z,25.50
2019-04-03T10:14:31.060Z,27.80
2019-04-03T10:17:01.432Z,21.33
2019-04-03T10:19:30.802Z,20.13
2019-04-03T10:22:00.905Z,24.07
2019-04-03T10:24:31.093Z,19.70
2019-04-03T10:27:01.760Z,20.67
2019-04-03T10:29:31.315Z,21.87
2019-04-03T10:32:01.666Z,20.03
2019-04-03T10:34:34.831Z,21.33
2019-04-03T10:37:04.872Z,21.10
2019-04-03T10:39:40.021Z,25.30
2019-04-03T10:42:10.138Z,22.40
2019-04-03T10:44:40.689Z,35.73
2019-04-03T10:47:11.273Z,22.77
2019-04-03T10:49:41.635Z,22.80
2019-04-03T10:52:14.474Z,24.40
2019-04-03T10:54:45.154Z,18.73
2019-04-03T10:57:14.155Z,18.17
2019-04-03T10:59:44.974Z,19.93
2019-04-03T11:02:15.619Z,18.00
2019-04-03T11:04:45.453Z,19.43
2019-04-03T11:07:14.887Z,17.40
2019-04-03T11:09:44.531Z,17.03
2019-04-03T11:12:14.045Z,23.03
2019-04-03T11:14:46.036Z,21.30
2019-04-03T11:17:15.995Z,18.20
2019-04-03T11:19:47.629Z,19.83
2019-04-03T11:22:19.123Z,18.87
2019-04-03T11:24:49.766Z,18.63
2019-04-03T11:27:23.090Z,19.27
2019-04-03T11:29:52.765Z,17.37
2019-04-03T11:32:23.712Z,20.63
2019-04-03T11:34:54.813Z,21.57
2019-04-03T11:37:25.134Z,22.87
2019-04-03T11:40:02.449Z,19.77
2019-04-03T11:42:29.196Z,23.30
2019-04-03T11:44:58.406Z,18.77
2019-04-03T11:47:27.908Z,18.10
2019-04-03T11:49:58.337Z,18.10
2019-04-03T11:52:27.755Z,17.27
2019-04-03T11:54:57.113Z,17.80
2019-04-03T11:57:29.768Z,12.37
2019-04-03T11:59:59.166Z,13.67
2019-04-03T12:02:29.740Z,13.60
2019-04-03T12:04:59.956Z,20.57
2019-04-03T12:07:28.851Z,18.33
2019-04-03T12:09:58.417Z,18.77
2019-04-03T12:12:28.842Z,14.23
2019-04-03T12:14:59.265Z,22.03
2019-04-03T12:17:30.488Z,15.93
2019-04-03T12:20:01.328Z,18.03
2019-04-03T12:22:30.728Z,18.67
2019-04-03T12:25:01.092Z,14.97
2019-04-03T12:27:31.621Z,16.83
2019-04-03T12:30:01.981Z,17.33
2019-04-03T12:32:39.626Z,18.20
2019-04-03T12:35:02.730Z,19.70
2019-04-03T12:37:32.329Z,15.20
2019-04-03T12:40:03.606Z,18.37
2019-04-03T12:42:34.045Z,16.33
2019-04-03T12:45:03.440Z,13.83
2019-04-03T12:47:33.923Z,23.30
2019-04-03T12:50:04.340Z,13.73
2019-04-03T12:52:33.777Z,14.80
2019-04-03T12:55:03.175Z,10.37
2019-04-03T12:57:33.777Z,9.33
2019-04-03T13:00:04.521Z,10.97
2019-04-03T13:02:36.330Z,16.33
2019-04-03T13:05:10.192Z,11.47
2019-04-03T13:07:39.675Z,11.27
2019-04-03T13:10:12.186Z,9.93
2019-04-03T13:12:42.579Z,10.43
2019-04-03T13:15:12.682Z,10.67
2019-04-03T13:17:44.952Z,15.20
2019-04-03T13:20:15.747Z,16.40
2019-04-03T13:22:47.766Z,14.50
2019-04-03T13:25:20.622Z,11.37
2019-04-03T13:27:58.368Z,12.53
2019-04-03T13:30:30.253Z,12.97
2019-04-03T13:33:05.178Z,13.30
2019-04-03T13:35:30.874Z,10.47
2019-04-03T13:38:02.995Z,10.10
2019-04-03T13:40:36.420Z,11.83
2019-04-03T13:43:06.112Z,13.77
2019-04-03T13:45:38.932Z,14.67
2019-04-03T13:48:13.412Z,12.23
2019-04-03T13:50:45.474Z,11.93
2019-04-03T13:53:18.391Z,13.00
2019-04-03T13:55:50.103Z,10.40
2019-04-03T13:58:22.547Z,12.23
2019-04-03T14:01:01.004Z,9.77
2019-04-03T14:03:28.019Z,13.87
2019-04-03T14:05:58.261Z,10.43
2019-04-03T14:08:27.744Z,13.43
2019-04-03T14:10:58.785Z,11.33
2019-04-03T14:13:28.820Z,8.90
2019-04-03T14:15:59.475Z,10.57
2019-04-03T14:18:29.477Z,14.07
2019-04-03T14:21:00.173Z,11.90
2019-04-03T14:23:29.655Z,11.63
2019-04-03T14:26:06.127Z,10.93
2019-04-03T14:28:29.992Z,9.00
2019-04-03T14:31:00.565Z,9.10
2019-04-03T14:33:41.649Z,11.33
2019-04-03T14:36:01.241Z,10.07
2019-04-03T14:38:32.397Z,10.53
2019-04-03T14:41:01.158Z,11.67
2019-04-03T14:43:33.298Z,12.63
2019-04-03T14:46:02.076Z,8.97
2019-04-03T14:48:32.604Z,10.20
2019-04-03T14:51:02.156Z,14.23
2019-04-03T14:53:31.595Z,10.13
2019-04-03T14:56:01.535Z,10.87
2019-04-03T14:58:34.132Z,9.03
2019-04-03T15:01:03.539Z,11.17
2019-04-03T15:03:34.528Z,11.37
2019-04-03T15:06:05.833Z,13.27
2019-04-03T15:08:36.952Z,11.87
2019-04-03T15:11:09.007Z,8.20
2019-04-03T15:13:39.906Z,22.17
2019-04-03T15:16:10.346Z,10.70
2019-04-03T15:18:42.150Z,9.83
2019-04-03T15:21:11.093Z,14.67
2019-04-03T15:23:42.016Z,10.20
2019-04-03T15:26:11.568Z,9.77
2019-04-03T15:28:41.962Z,12.00
2019-04-03T15:31:14.321Z,9.17
2019-04-03T15:33:43.657Z,11.87
2019-04-03T15:36:13.484Z,12.03
2019-04-03T15:38:45.649Z,18.73
2019-04-03T15:41:16.694Z,9.67
2019-04-03T15:43:49.623Z,13.60
2019-04-03T15:46:21.086Z,11.53
2019-04-03T15:48:55.152Z,8.37
2019-04-03T15:51:25.808Z,12.20
2019-04-03T15:53:57.033Z,12.33
2019-04-03T15:56:29.002Z,12.80
2019-04-03T15:58:59.226Z,15.57
2019-04-03T16:01:31.100Z,10.27
2019-04-03T16:04:01.360Z,7.37
2019-04-03T16:06:33.441Z,6.77
2019-04-03T16:09:03.774Z,9.13
2019-04-03T16:11:34.662Z,10.23
2019-04-03T16:14:06.437Z,11.80
2019-04-03T16:16:38.078Z,12.33
2019-04-03T16:19:11.396Z,9.37
2019-04-03T16:21:40.733Z,11.37
2019-04-03T16:24:13.139Z,8.03
2019-04-03T16:26:43.881Z,11.03
2019-04-03T16:29:13.065Z,10.43
2019-04-03T16:31:43.885Z,14.00
2019-04-03T16:34:14.442Z,9.17
2019-04-03T16:36:47.916Z,15.07
2019-04-03T16:39:17.340Z,14.07
2019-04-03T16:41:48.492Z,10.60
2019-04-03T16:44:20.516Z,18.80
2019-04-03T16:46:50.800Z,13.27
2019-04-03T16:49:22.779Z,17.00
2019-04-03T16:51:53.707Z,13.10
2019-04-03T16:54:24.174Z,19.83
2019-04-03T16:56:56.357Z,10.83
2019-04-03T16:59:25.811Z,12.00
2019-04-03T17:01:56.839Z,16.83
2019-04-03T17:04:28.611Z,13.40
2019-04-03T17:06:57.487Z,11.73
2019-04-03T17:09:31.746Z,12.93
2019-04-03T17:12:00.802Z,17.27
2019-04-03T17:14:31.894Z,19.90
2019-04-03T17:17:03.525Z,18.37
2019-04-03T17:19:34.098Z,16.03
2019-04-03T17:22:05.810Z,20.07
2019-04-03T17:24:44.046Z,17.93
2019-04-03T17:27:09.262Z,13.40
2019-04-03T17:29:41.695Z,16.37
2019-04-03T17:32:12.450Z,17.50
2019-04-03T17:34:44.119Z,14.60
2019-04-03T17:37:12.600Z,15.43
2019-04-03T17:39:45.132Z,13.60
2019-04-03T17:42:17.632Z,15.13
2019-04-03T17:44:48.152Z,12.90
2019-04-03T17:47:19.243Z,23.87
2019-04-03T17:49:51.883Z,14.17
2019-04-03T17:52:25.414Z,16.10
2019-04-03T17:54:54.994Z,13.47
2019-04-03T17:57:24.393Z,21.50
2019-04-03T17:59:52.898Z,15.80
2019-04-03T18:02:22.820Z,13.63
2019-04-03T18:04:53.892Z,16.77
2019-04-03T18:07:24.210Z,35.80
2019-04-03T18:09:53.701Z,15.90
2019-04-03T18:12:26.047Z,15.60
2019-04-03T18:14:55.729Z,15.40
2019-04-03T18:17:27.637Z,21.70
2019-04-03T18:19:58.033Z,16.50
2019-04-03T18:22:27.400Z,16.37
2019-04-03T18:24:59.132Z,13.00
2019-04-03T18:27:29.517Z,14.63
2019-04-03T18:30:00.034Z,13.10
2019-04-03T18:32:31.190Z,15.80
2019-04-03T18:35:03.143Z,11.47
2019-04-03T18:37:32.707Z,17.23
2019-04-03T18:40:05.713Z,14.83
2019-04-03T18:42:35.653Z,13.77
2019-04-03T18:45:07.513Z,13.40
2019-04-03T18:47:41.608Z,14.70
2019-04-03T18:50:10.353Z,12.60
2019-04-03T18:52:41.845Z,14.87
2019-04-03T18:55:14.538Z,13.40
2019-04-03T18:57:45.983Z,11.07
2019-04-03T19:00:17.239Z,16.10
2019-04-03T19:02:46.645Z,14.97
2019-04-03T19:05:15.260Z,17.87
2019-04-03T19:07:45.880Z,20.17
2019-04-03T19:10:14.335Z,15.77
2019-04-03T19:12:46.075Z,13.67
2019-04-03T19:15:15.733Z,15.97
2019-04-03T19:17:45.279Z,11.87
2019-04-03T19:20:14.850Z,12.03
2019-04-03T19:22:44.312Z,18.37
2019-04-03T19:25:16.562Z,15.70
2019-04-03T19:27:46.304Z,11.93
2019-04-03T19:30:16.874Z,14.67
2019-04-03T19:32:46.290Z,17.10
2019-04-03T19:35:16.751Z,11.77
2019-04-03T19:37:46.102Z,15.10
2019-04-03T19:40:15.615Z,12.83
2019-04-03T19:42:45.048Z,13.83
2019-04-03T19:45:14.258Z,17.10
2019-04-03T19:47:45.838Z,14.67
2019-04-03T19:50:15.311Z,20.27
2019-04-03T19:52:45.671Z,14.13
2019-04-03T19:55:14.524Z,24.53
2019-04-03T19:57:47.089Z,14.13
2019-04-03T20:00:18.082Z,21.10
2019-04-03T20:02:48.485Z,15.23
2019-04-03T20:05:19.524Z,13.00
2019-04-03T20:07:48.431Z,13.83
2019-04-03T20:10:18.154Z,15.07
2019-04-03T20:12:47.765Z,15.03
2019-04-03T20:15:18.123Z,15.93
2019-04-03T20:17:49.050Z,18.17
2019-04-03T20:20:19.662Z,9.20
2019-04-03T20:22:49.130Z,13.67
2019-04-03T20:25:19.507Z,12.43
2019-04-03T20:27:52.135Z,13.97
2019-04-03T20:30:21.902Z,10.30
2019-04-03T20:32:52.506Z,13.57
2019-04-03T20:35:23.133Z,10.47
2019-04-03T20:37:56.660Z,15.87
2019-04-03T20:40:25.723Z,13.00
2019-04-03T20:42:55.094Z,14.10
2019-04-03T20:45:25.506Z,10.93
2019-04-03T20:47:57.386Z,10.27
2019-04-03T20:50:29.742Z,10.27
2019-04-03T20:53:00.150Z,10.17
2019-04-03T20:55:30.566Z,13.13
2019-04-03T20:58:01.197Z,15.37
2019-04-03T21:00:31.706Z,17.60
2019-04-03T21:03:01.145Z,10.23
2019-04-03T21:05:31.657Z,7.70
2019-04-03T21:08:02.076Z,9.00
2019-04-03T21:10:32.469Z,10.33
2019-04-03T21:13:01.953Z,11.30
2019-04-03T21:15:31.437Z,18.43
2019-04-03T21:18:01.845Z,17.50
2019-04-03T21:20:32.415Z,13.50
2019-04-03T21:23:03.749Z,19.57
2019-04-03T21:25:36.128Z,12.70
2019-04-03T21:28:06.520Z,13.63
2019-04-03T21:30:36.880Z,10.73
2019-04-03T21:33:08.657Z,14.47
2019-04-03T21:35:39.036Z,11.83
2019-04-03T21:38:11.516Z,11.20
2019-04-03T21:40:40.894Z,13.27
2019-04-03T21:43:10.247Z,13.77
2019-04-03T21:45:41.713Z,12.33
2019-04-03T21:48:13.547Z,11.67
2019-04-03T21:50:42.233Z,12.80
2019-04-03T21:53:12.624Z,12.30
2019-04-03T21:55:42.078Z,11.83
2019-04-03T21:58:12.469Z,15.37
2019-04-03T22:01:01.109Z,11.77
2019-04-03T22:03:31.408Z,11.23
2019-04-03T22:06:01.868Z,12.17
2019-04-03T22:08:32.264Z,11.23
2019-04-03T22:11:04.614Z,10.10
2019-04-03T22:13:34.872Z,11.23
2019-04-03T22:16:06.672Z,12.57
2019-04-03T22:18:35.558Z,10.97
2019-04-03T22:21:05.084Z,10.13
2019-04-03T22:23:35.930Z,7.53
2019-04-03T22:26:05.941Z,6.07
2019-04-03T22:28:35.357Z,7.77
2019-04-03T22:31:04.878Z,6.33
2019-04-03T22:33:34.271Z,5.80
2019-04-03T22:36:04.743Z,6.23
2019-04-03T22:38:37.275Z,6.57
2019-04-03T22:41:12.134Z,7.23
2019-04-03T22:43:39.928Z,9.30
2019-04-03T22:46:10.290Z,6.60
2019-04-03T22:48:40.527Z,5.93
2019-04-03T22:51:09.887Z,5.67
2019-04-03T22:53:39.861Z,5.20
2019-04-03T22:56:11.445Z,5.50
2019-04-03T22:58:40.796Z,5.07
2019-04-03T23:01:10.204Z,7.30
2019-04-03T23:03:42.542Z,5.30
2019-04-03T23:06:13.055Z,5.00
2019-04-03T23:08:42.509Z,6.30
2019-04-03T23:11:13.027Z,5.57
2019-04-03T23:13:43.433Z,5.10
2019-04-03T23:16:13.945Z,5.87
2019-04-03T23:18:46.584Z,5.53
2019-04-03T23:21:15.495Z,5.70
2019-04-03T23:23:44.976Z,6.87
2019-04-03T23:26:15.340Z,5.50
2019-04-03T23:28:45.678Z,5.60
2019-04-03T23:31:16.015Z,5.53
2019-04-03T23:33:47.554Z,6.30
2019-04-03T23:36:17.647Z,6.23
2019-04-03T23:38:47.983Z,5.00
2019-04-03T23:41:18.381Z,5.03
2019-04-03T23:43:49.939Z,5.10
2019-04-03T23:46:19.491Z,4.97
2019-04-03T23:48:49.500Z,4.93
2019-04-03T23:51:23.384Z,4.33
2019-04-03T23:53:50.076Z,4.10
2019-04-03T23:56:19.445Z,4.77
2019-04-03T23:58:50.545Z,4.33
